Hauptseite
METAR-TAF:

METAR-TAF

Flughäfen :

Memmingen, Deutschland

Breite: 47-59-33N, Länge: 10-14-37E, Höhe: 633 m

Beobachtung

Neuester Wetterbericht von vor 24 Minuten, um 19:20 UTC
Wind 6 kt aus Ost/Nordost
Temperatur 14°C
Luftfeuchtigkeit 82%
Luftdruck 1020 hPa
Sichtweite 10 km oder mehr
keine Wolken unter 1500 m und keine Kumulonimbus oder Gewitterwolken

METAR: EDJA 051920Z 06006KT CAVOK 14/11 Q1020

Zeit: 21:44 (19:44 UTC)

Prognose

Neuester Wetterbericht von vor 2 Stunden und 44 Minuten, um 17:00 UTC
Gültige Prognose vom 05 um 18 UTC bis 06 um 03 UTC
Wind 8 kt aus Ost/Nordost
Sichtweite 10 km oder mehr
Leicht bewölkt in der Höhe von 4500 ft
Übergehend zu
vom 05 um 18 UTC bis 05 um 20 UTC
Wind 3 kt aus Ost
Zeitweise
vom 06 um 00 UTC bis 06 um 03 UTC
Sichtweite: 2000 m
Nebelschwaden

TAF: EDJA 051700Z 0518/0603 06008KT 9999 FEW045 BECMG 0518/0520 08003KT TEMPO 0600/0603 2000 BCFG

Wetterbeobachtungen und Prognosen von mehr als 4000 Flughäfen (METAR und TAF Bericht).

Die verfügbaren Stationen werden durch gelbe und rote Markierungen auf der Karte dargestellt.

Führen Sie die Maus auf sie, um den Namen der Station zu sehen.

Darauf klicken, um die Beobachtung von Wetterbeobachtungen und Prognosen zu sehen.

Um die Karte zu ändern : klicken Sie auf den grünen Tasten mit einem schwarzen Kreuz Zum Vergrößern, auf den grünen Button mit einem Gedankenstrich zu verkleinern, oder auf die grünen Pfeile für benachbarte Karten.


METAR-TAF: